Coaldale, Colorado
Current Conditions -  °F | °C
As of 6:35 AM on Friday 19 Dec 2014 (Local Time) from KANK Reporting Station
Clear Clear  
Wind Chill: 20°   Ceiling: Unl
Heat Index: 20°   Visibility: 10mi
Dew Point: 11°   Wind: 3mph
Humidity: 68%   Direction: 320°NW
Pressure: 30.21"   Gusts: NA
Location:  38.37°N, 105.76°W
Report Text: KANK 191335Z AUTO 32003KT 10SM CLR M06/M11 A3021 RMK AO1 T10641115
Loading
Personal Weather Stations






























Interactive Weather Map New forecast layout! Learn more

10-Day Weather Forecast

Advertisements
Track Severe Weather on mobile